createdAt,value
2019-04-06T00:01:48.062Z,98548.58
2019-04-06T00:06:51.399Z,98555.42
2019-04-06T00:11:54.448Z,98543.70
2019-04-06T00:16:57.616Z,98546.48
2019-04-06T00:22:00.734Z,98544.54
2019-04-06T00:27:03.914Z,98538.63
2019-04-06T00:32:25.802Z,98542.76
2019-04-06T00:37:28.899Z,98539.52
2019-04-06T00:42:31.951Z,98535.49
2019-04-06T00:47:35.312Z,98539.16
2019-04-06T00:52:38.435Z,98534.59
2019-04-06T00:57:41.610Z,98535.61
2019-04-06T01:02:44.739Z,98537.67
2019-04-06T01:07:48.251Z,98532.84
2019-04-06T01:12:51.474Z,98529.61
2019-04-06T01:17:54.432Z,98529.61
2019-04-06T01:22:57.417Z,98539.11
2019-04-06T01:28:00.517Z,98538.84
2019-04-06T01:33:03.808Z,98538.07
2019-04-06T01:38:06.906Z,98540.72
2019-04-06T01:43:10.139Z,98530.80
2019-04-06T01:48:13.239Z,98524.51
2019-04-06T01:53:16.303Z,98518.09
2019-04-06T01:58:19.448Z,98521.23
2019-04-06T02:03:22.603Z,98525.34
2019-04-06T02:08:25.608Z,98519.95
2019-04-06T02:13:28.774Z,98523.56
2019-04-06T02:18:31.965Z,98521.27
2019-04-06T02:23:35.177Z,98534.77
2019-04-06T02:28:38.535Z,98529.13
2019-04-06T02:34:16.189Z,98526.44
2019-04-06T02:39:32.795Z,98526.28
2019-04-06T02:44:35.140Z,98521.69
2019-04-06T02:49:38.372Z,98522.37
2019-04-06T02:54:41.637Z,98517.84
2019-04-06T02:59:44.707Z,98523.41
2019-04-06T03:04:47.807Z,98531.30
2019-04-06T03:09:51.092Z,98525.81
2019-04-06T03:14:54.193Z,98530.34
2019-04-06T03:19:57.139Z,98536.07
2019-04-06T03:25:00.324Z,98540.00
2019-04-06T03:30:04.938Z,98543.08
2019-04-06T03:35:08.460Z,98545.16
2019-04-06T03:40:12.217Z,98548.73
2019-04-06T03:45:16.045Z,98552.17
2019-04-06T03:50:19.233Z,98560.13
2019-04-06T03:55:22.556Z,98552.48
2019-04-06T04:00:25.909Z,98543.22
2019-04-06T04:05:29.077Z,98537.13
2019-04-06T04:10:34.746Z,98532.33
2019-04-06T04:15:38.147Z,98523.97
2019-04-06T04:20:41.198Z,98535.33
2019-04-06T04:25:44.537Z,98538.84
2019-04-06T04:30:47.675Z,98559.05
2019-04-06T04:35:50.764Z,98560.45
2019-04-06T04:40:53.906Z,98558.82
2019-04-06T04:45:57.104Z,98558.76
2019-04-06T04:51:00.235Z,98570.01
2019-04-06T04:56:03.475Z,98576.45
2019-04-06T05:01:06.444Z,98571.17
2019-04-06T05:06:09.575Z,98592.52
2019-04-06T05:11:12.644Z,98590.84
2019-04-06T05:16:18.396Z,98586.72
2019-04-06T05:21:21.363Z,98591.50
2019-04-06T05:26:24.518Z,98582.77
2019-04-06T05:31:27.656Z,98571.92
2019-04-06T05:36:31.048Z,98592.44
2019-04-06T05:41:34.153Z,98602.91
2019-04-06T05:46:37.233Z,98595.45
2019-04-06T05:51:40.194Z,98575.29
2019-04-06T05:56:43.288Z,98559.91
2019-04-06T06:01:48.467Z,98547.20
2019-04-06T06:06:51.824Z,98555.94
2019-04-06T06:11:55.934Z,98564.78
2019-04-06T06:16:59.192Z,98576.84
2019-04-06T06:22:02.293Z,98579.53
2019-04-06T06:27:05.516Z,98576.17
2019-04-06T06:32:08.640Z,98571.52
2019-04-06T06:37:11.839Z,98567.45
2019-04-06T06:42:14.809Z,98565.42
2019-04-06T06:47:17.998Z,98584.11
2019-04-06T06:52:20.940Z,98594.66
2019-04-06T06:57:24.284Z,98592.92
2019-04-06T07:02:27.604Z,98590.14
2019-04-06T07:07:30.888Z,98584.02
2019-04-06T07:12:34.071Z,98573.53
2019-04-06T07:17:37.206Z,98579.06
2019-04-06T07:22:40.245Z,98579.80
2019-04-06T07:27:43.432Z,98582.17
2019-04-06T07:32:46.875Z,98584.04
2019-04-06T07:37:49.883Z,98593.11
2019-04-06T07:42:53.449Z,98590.49
2019-04-06T07:47:56.697Z,98578.84
2019-04-06T07:52:59.766Z,98584.27
2019-04-06T07:58:02.927Z,98586.89
2019-04-06T08:03:06.315Z,98603.58
2019-04-06T08:08:09.797Z,98610.61
2019-04-06T08:13:12.954Z,98617.84
2019-04-06T08:18:15.947Z,98615.96
2019-04-06T08:23:19.763Z,98620.04
2019-04-06T08:28:23.512Z,98616.67
2019-04-06T08:33:28.108Z,98610.48
2019-04-06T08:38:31.486Z,98609.88
2019-04-06T08:43:34.440Z,98611.80
2019-04-06T08:48:37.549Z,98606.50
2019-04-06T08:53:40.899Z,98610.44
2019-04-06T08:58:44.188Z,98612.41
2019-04-06T09:03:47.296Z,98614.34
2019-04-06T09:08:51.105Z,98617.75
2019-04-06T09:13:54.271Z,98624.40
2019-04-06T09:18:57.527Z,98598.50
2019-04-06T09:24:01.155Z,98594.06
2019-04-06T09:29:04.305Z,98583.59
2019-04-06T09:34:07.819Z,98592.16
2019-04-06T09:39:11.647Z,98597.81
2019-04-06T09:44:24.409Z,98595.42
2019-04-06T09:49:59.204Z,98599.59
2019-04-06T09:55:21.972Z,98594.78
2019-04-06T10:00:35.322Z,98586.64
2019-04-06T10:05:56.961Z,98592.17
2019-04-06T10:11:22.548Z,98614.42
2019-04-06T10:16:37.650Z,98601.41
2019-04-06T10:22:09.044Z,98609.60
2019-04-06T10:27:30.680Z,98602.45
2019-04-06T10:32:52.088Z,98618.42
2019-04-06T10:38:03.896Z,98605.64
2019-04-06T10:43:20.954Z,98608.13
2019-04-06T10:48:46.290Z,98600.41
2019-04-06T10:53:57.348Z,98605.23
2019-04-06T10:59:19.357Z,98609.50
2019-04-06T11:04:48.267Z,98624.43
2019-04-06T11:10:09.290Z,98625.23
2019-04-06T11:15:31.048Z,98613.72
2019-04-06T11:20:44.880Z,98584.98
2019-04-06T11:26:10.750Z,98586.59
2019-04-06T11:31:34.992Z,98616.71
2019-04-06T11:36:57.769Z,98621.51
2019-04-06T11:42:23.803Z,98625.23
2019-04-06T11:47:38.495Z,98615.59
2019-04-06T11:53:07.063Z,98611.08
2019-04-06T11:58:17.992Z,98594.55
2019-04-06T12:03:26.875Z,98603.05
2019-04-06T12:08:55.530Z,98627.50
2019-04-06T12:14:21.288Z,98634.39
2019-04-06T12:19:52.844Z,98653.16
2019-04-06T12:25:18.261Z,98624.98
2019-04-06T12:30:37.726Z,98593.84
2019-04-06T12:36:09.434Z,98595.28
2019-04-06T12:41:37.777Z,98582.20
2019-04-06T12:47:00.535Z,98581.67
2019-04-06T12:52:23.698Z,98579.62
2019-04-06T12:57:46.383Z,98595.95
2019-04-06T13:03:21.064Z,98639.36
2019-04-06T13:08:33.705Z,98666.97
2019-04-06T13:14:02.224Z,98673.39
2019-04-06T13:19:27.714Z,98642.69
2019-04-06T13:24:49.740Z,98633.67
2019-04-06T13:30:12.314Z,98630.16
2019-04-06T13:35:33.825Z,98637.52
2019-04-06T13:40:54.260Z,98644.94
2019-04-06T13:46:15.885Z,98638.10
2019-04-06T13:51:38.599Z,98631.58
2019-04-06T13:57:07.459Z,98612.16
2019-04-06T14:02:28.621Z,98606.41
2019-04-06T14:07:54.457Z,98602.72
2019-04-06T14:13:29.232Z,98600.23
2019-04-06T14:18:47.669Z,98595.39
2019-04-06T14:24:28.500Z,98605.25
2019-04-06T14:30:00.424Z,98593.00
2019-04-06T14:35:10.332Z,98586.24
2019-04-06T14:40:31.929Z,98591.63
2019-04-06T14:45:55.184Z,98588.71
2019-04-06T14:51:17.658Z,98574.51
2019-04-06T14:56:36.156Z,98565.17
2019-04-06T15:02:01.463Z,98568.66
2019-04-06T15:07:13.711Z,98560.64
2019-04-06T15:12:36.250Z,98569.20
2019-04-06T15:17:54.893Z,98564.09
2019-04-06T15:23:27.237Z,98561.53
2019-04-06T15:28:48.621Z,98561.75
2019-04-06T15:34:11.321Z,98547.09
2019-04-06T15:39:40.075Z,98543.77
2019-04-06T15:45:02.642Z,98542.66
2019-04-06T15:50:24.490Z,98565.30
2019-04-06T15:55:40.605Z,98567.70
2019-04-06T16:01:12.153Z,98563.95
2019-04-06T16:06:24.219Z,98571.55
2019-04-06T16:11:52.294Z,98568.07
2019-04-06T16:17:18.028Z,98550.78
2019-04-06T16:22:30.561Z,98561.50
2019-04-06T16:27:56.045Z,98562.55
2019-04-06T16:33:09.111Z,98556.97
2019-04-06T16:38:41.139Z,98557.71
2019-04-06T16:44:02.326Z,98555.93
2019-04-06T16:49:25.255Z,98551.19
2019-04-06T16:54:59.979Z,98559.63
2019-04-06T17:00:24.040Z,98555.77
2019-04-06T17:05:36.629Z,98555.55
2019-04-06T17:10:47.981Z,98545.63
2019-04-06T17:16:05.695Z,98551.94
2019-04-06T17:21:20.293Z,98548.62
2019-04-06T17:26:49.226Z,98544.62
2019-04-06T17:32:12.159Z,98545.77
2019-04-06T17:37:40.476Z,98544.66
2019-04-06T17:42:59.503Z,98541.45
2019-04-06T17:48:35.004Z,98540.16
2019-04-06T17:53:59.607Z,98548.17
2019-04-06T17:59:21.163Z,98547.13
2019-04-06T18:04:46.967Z,98542.43
2019-04-06T18:10:00.412Z,98527.61
2019-04-06T18:15:04.254Z,98531.54
2019-04-06T18:20:08.556Z,98546.78
2019-04-06T18:25:12.240Z,98539.19
2019-04-06T18:30:16.870Z,98545.53
2019-04-06T18:35:20.013Z,98549.12
2019-04-06T18:40:25.887Z,98542.51
2019-04-06T18:45:31.377Z,98538.84
2019-04-06T18:50:38.313Z,98546.09
2019-04-06T18:55:39.393Z,98549.61
2019-04-06T19:00:42.385Z,98541.91
2019-04-06T19:05:45.719Z,98545.59
2019-04-06T19:10:48.691Z,98543.23
2019-04-06T19:15:51.917Z,98551.23
2019-04-06T19:20:54.973Z,98552.03
2019-04-06T19:25:57.982Z,98545.59
2019-04-06T19:31:00.987Z,98542.47
2019-04-06T19:36:04.361Z,98553.33
2019-04-06T19:41:07.499Z,98557.72
2019-04-06T19:46:11.196Z,98550.73
2019-04-06T19:51:14.883Z,98561.28
2019-04-06T19:56:18.183Z,98556.70
2019-04-06T20:01:21.302Z,98556.56
2019-04-06T20:06:24.860Z,98564.03
2019-04-06T20:11:28.089Z,98570.12
2019-04-06T20:16:31.107Z,98560.87
2019-04-06T20:21:34.665Z,98548.52
2019-04-06T20:26:38.543Z,98546.42
2019-04-06T20:31:41.809Z,98542.34
2019-04-06T20:36:45.157Z,98526.78
2019-04-06T20:41:48.665Z,98528.58
2019-04-06T20:46:51.763Z,98529.04
2019-04-06T20:51:55.002Z,98540.42
2019-04-06T20:56:59.087Z,98552.77
2019-04-06T21:02:02.850Z,98541.70
2019-04-06T21:07:06.639Z,98549.62
2019-04-06T21:12:09.702Z,98547.27
2019-04-06T21:17:12.752Z,98535.97
2019-04-06T21:22:16.175Z,98532.53
2019-04-06T21:27:19.720Z,98525.28
2019-04-06T21:32:23.110Z,98532.75
2019-04-06T21:37:26.371Z,98530.45
2019-04-06T21:42:29.616Z,98533.32
2019-04-06T21:47:33.989Z,98533.04
2019-04-06T21:52:37.378Z,98522.83
2019-04-06T21:57:40.501Z,98515.82
2019-04-06T22:02:43.754Z,98515.00
2019-04-06T22:07:50.796Z,98504.38
2019-04-06T22:12:52.426Z,98510.02
2019-04-06T22:17:55.703Z,98512.72
2019-04-06T22:22:58.842Z,98515.80
2019-04-06T22:28:01.956Z,98508.33
2019-04-06T22:33:05.101Z,98503.12
2019-04-06T22:38:08.203Z,98506.07
2019-04-06T22:43:11.276Z,98504.49
2019-04-06T22:48:14.729Z,98507.66
2019-04-06T22:53:17.693Z,98496.91
2019-04-06T22:58:20.915Z,98507.31
2019-04-06T23:03:43.543Z,98498.20
2019-04-06T23:08:46.594Z,98502.72
2019-04-06T23:13:49.521Z,98500.05
2019-04-06T23:18:52.626Z,98485.30
2019-04-06T23:23:55.670Z,98485.78
2019-04-06T23:28:58.784Z,98485.08
2019-04-06T23:34:02.150Z,98486.34
2019-04-06T23:39:07.041Z,98485.64
2019-04-06T23:44:10.059Z,98483.01
2019-04-06T23:49:13.354Z,98476.27
2019-04-06T23:54:16.820Z,98479.53
2019-04-06T23:59:19.998Z,98482.89
